Terminal Aerodrome Forecast
Issued by NWS

Home | Current Version | Previous Version | Text Only | Print | Product List | Glossary On
Versions: 1 2 3 4 5 6 7 8 9 10 11 12 13 14 15
000
FTUS46 KMTR 311700
TAFSNS
TAF
KSNS 311735Z 3118/0118 27005KT P6SM SCT008
     FM312100 29015KT P6SM SKC
     FM010300 30010KT P6SM OVC007
     FM010700 VRB03KT P6SM OVC003=

USA.gov is the U.S. government's official web portal to all federal, state and local government web resources and services.